createdAt,value
2023-02-07T00:01:46.638Z,57.00
2023-02-07T00:04:15.288Z,59.88
2023-02-07T00:06:43.957Z,59.67
2023-02-07T00:09:13.786Z,59.50
2023-02-07T00:11:42.550Z,57.25
2023-02-07T00:14:13.457Z,54.53
2023-02-07T00:16:43.000Z,49.72
2023-02-07T00:19:12.112Z,56.85
2023-02-07T00:21:40.794Z,57.22
2023-02-07T00:24:09.683Z,54.22
2023-02-07T00:26:38.418Z,59.13
2023-02-07T00:29:07.479Z,65.35
2023-02-07T00:31:37.547Z,67.75
2023-02-07T00:34:09.412Z,64.78
2023-02-07T00:36:39.283Z,63.70
2023-02-07T00:39:13.114Z,57.28
2023-02-07T00:41:43.053Z,63.38
2023-02-07T00:44:12.119Z,66.40
2023-02-07T00:46:41.508Z,65.85
2023-02-07T00:49:10.175Z,63.95
2023-02-07T00:51:39.155Z,65.30
2023-02-07T00:54:08.814Z,66.82
2023-02-07T00:56:37.582Z,65.05
2023-02-07T00:59:06.401Z,67.90
2023-02-07T01:01:35.378Z,64.13
2023-02-07T01:04:04.944Z,61.60
2023-02-07T01:06:36.866Z,64.40
2023-02-07T01:09:07.307Z,66.50
2023-02-07T01:11:36.252Z,70.20
2023-02-07T01:14:05.163Z,70.45
2023-02-07T01:16:36.896Z,68.00
2023-02-07T01:19:10.003Z,69.55
2023-02-07T01:21:38.861Z,66.60
2023-02-07T01:24:08.080Z,65.50
2023-02-07T01:26:39.340Z,67.25
2023-02-07T01:29:08.516Z,67.22
2023-02-07T01:31:37.383Z,67.57
2023-02-07T01:34:06.258Z,68.40
2023-02-07T01:36:35.148Z,68.15
2023-02-07T01:39:05.208Z,67.18
2023-02-07T01:41:34.100Z,65.75
2023-02-07T01:44:07.295Z,64.97
2023-02-07T01:46:37.632Z,65.78
2023-02-07T01:49:11.821Z,66.85
2023-02-07T01:51:48.137Z,63.78
2023-02-07T01:54:18.440Z,66.15
2023-02-07T01:56:53.597Z,65.95
2023-02-07T01:59:23.970Z,64.65
2023-02-07T02:01:54.213Z,63.72
2023-02-07T02:04:23.734Z,66.05
2023-02-07T02:06:53.359Z,64.95
2023-02-07T02:54:32.853Z,66.22
2023-02-07T02:57:23.322Z,68.75
2023-02-07T03:00:05.418Z,69.22
2023-02-07T03:02:57.956Z,67.33
2023-02-07T03:05:29.844Z,64.68
2023-02-07T03:08:22.565Z,64.63
2023-02-07T03:11:13.023Z,65.80
2023-02-07T03:14:03.879Z,69.20
2023-02-07T03:16:41.052Z,68.40
2023-02-07T03:19:26.683Z,66.00
2023-02-07T03:22:00.812Z,67.65
2023-02-07T03:24:34.874Z,67.30
2023-02-07T03:27:08.457Z,68.47
2023-02-07T03:29:40.090Z,64.90
2023-02-07T03:32:10.755Z,68.57
2023-02-07T03:34:44.648Z,70.28
2023-02-07T03:37:19.720Z,65.97
2023-02-07T03:39:49.350Z,69.18
2023-02-07T03:42:28.861Z,67.75
2023-02-07T03:45:00.287Z,64.75
2023-02-07T03:47:29.712Z,70.03
2023-02-07T03:49:58.617Z,69.20
2023-02-07T03:52:27.368Z,67.30
2023-02-07T03:54:56.069Z,68.00
2023-02-07T03:57:24.879Z,73.50
2023-02-07T03:59:54.478Z,69.10
2023-02-07T04:02:23.121Z,68.20
2023-02-07T04:04:52.049Z,66.15
2023-02-07T04:07:22.554Z,63.90
2023-02-07T04:09:51.197Z,64.00
2023-02-07T04:12:20.044Z,68.40
2023-02-07T04:14:48.825Z,63.50
2023-02-07T04:17:17.556Z,62.90
2023-02-07T04:19:46.385Z,63.08
2023-02-07T04:22:15.055Z,64.03
2023-02-07T04:24:43.694Z,61.85
2023-02-07T04:27:12.469Z,59.70
2023-02-07T04:29:41.172Z,62.88
2023-02-07T04:32:09.840Z,62.20
2023-02-07T04:34:38.615Z,62.22
2023-02-07T04:37:07.667Z,63.17
2023-02-07T04:39:36.553Z,61.80
2023-02-07T04:42:07.835Z,60.70
2023-02-07T04:44:36.465Z,59.60
2023-02-07T04:47:05.506Z,55.97
2023-02-07T04:49:34.711Z,60.63
2023-02-07T04:52:03.703Z,59.65
2023-02-07T04:54:32.430Z,59.67
2023-02-07T04:57:01.181Z,58.28
2023-02-07T04:59:30.085Z,57.03
2023-02-07T05:01:58.775Z,57.10
2023-02-07T05:04:27.928Z,56.70
2023-02-07T05:07:00.610Z,56.58
2023-02-07T05:11:58.758Z,51.92
2023-02-07T05:14:27.559Z,55.40
2023-02-07T05:16:56.292Z,54.60
2023-02-07T05:19:25.184Z,52.25
2023-02-07T05:21:53.945Z,50.33
2023-02-07T05:24:25.646Z,50.28
2023-02-07T05:26:54.479Z,50.72
2023-02-07T05:29:23.202Z,50.63
2023-02-07T05:32:12.191Z,47.85
2023-02-07T05:34:41.062Z,45.88
2023-02-07T05:37:10.017Z,44.85
2023-02-07T05:39:38.764Z,46.22
2023-02-07T05:42:07.763Z,48.85
2023-02-07T05:44:36.469Z,48.00
2023-02-07T05:47:05.142Z,48.40
2023-02-07T05:49:33.914Z,44.90
2023-02-07T05:52:03.503Z,44.95
2023-02-07T05:54:32.562Z,46.50
2023-02-07T05:57:01.776Z,45.22
2023-02-07T05:59:31.308Z,43.97
2023-02-07T06:02:00.118Z,44.17
2023-02-07T06:04:29.194Z,44.88
2023-02-07T06:07:00.715Z,46.40
2023-02-07T06:09:29.605Z,43.33
2023-02-07T06:11:58.843Z,43.42
2023-02-07T06:14:28.800Z,41.67
2023-02-07T06:16:57.604Z,43.55
2023-02-07T06:19:26.316Z,43.92
2023-02-07T06:21:55.142Z,42.55
2023-02-07T06:24:24.079Z,44.30
2023-02-07T06:26:52.961Z,45.22
2023-02-07T06:29:21.844Z,44.80
2023-02-07T06:31:50.629Z,42.75
2023-02-07T06:34:19.442Z,42.63
2023-02-07T06:36:48.853Z,39.83
2023-02-07T06:39:20.617Z,39.70
2023-02-07T06:41:49.575Z,39.38
2023-02-07T06:44:33.912Z,39.67
2023-02-07T06:47:02.765Z,40.47
2023-02-07T06:49:32.308Z,39.90
2023-02-07T06:52:01.155Z,39.75
2023-02-07T06:54:29.848Z,38.58
2023-02-07T06:57:26.974Z,39.50
2023-02-07T07:00:00.364Z,37.85
2023-02-07T07:02:29.857Z,37.50
2023-02-07T07:04:58.571Z,37.83
2023-02-07T07:07:27.367Z,35.72
2023-02-07T07:09:56.113Z,36.05
2023-02-07T07:12:24.726Z,36.95
2023-02-07T07:15:12.938Z,34.90
2023-02-07T07:17:41.754Z,33.97
2023-02-07T07:20:11.260Z,33.55
2023-02-07T07:22:57.992Z,33.13
2023-02-07T07:25:29.229Z,33.03
2023-02-07T07:27:58.724Z,34.50
2023-02-07T07:30:27.852Z,34.15
2023-02-07T07:32:57.113Z,32.90
2023-02-07T07:35:26.545Z,32.75
2023-02-07T07:37:55.186Z,32.60
2023-02-07T07:40:23.900Z,30.75
2023-02-07T07:42:53.692Z,31.20
2023-02-07T07:45:22.486Z,36.00
2023-02-07T07:47:51.241Z,32.05
2023-02-07T07:50:19.997Z,32.38
2023-02-07T07:52:48.649Z,31.65
2023-02-07T07:55:17.473Z,32.88
2023-02-07T07:57:46.278Z,31.48
2023-02-07T08:00:15.964Z,34.58
2023-02-07T08:02:45.134Z,34.53
2023-02-07T08:05:14.040Z,32.30
2023-02-07T08:07:42.834Z,31.45
2023-02-07T08:10:11.718Z,33.80
2023-02-07T08:12:40.723Z,33.95
2023-02-07T08:15:28.180Z,34.38
2023-02-07T08:17:58.078Z,34.38
2023-02-07T08:20:27.172Z,33.17
2023-02-07T08:22:55.876Z,32.03
2023-02-07T08:25:24.586Z,32.20
2023-02-07T08:27:54.202Z,31.27
2023-02-07T08:30:24.847Z,33.25
2023-02-07T08:32:53.738Z,30.83
2023-02-07T08:35:22.823Z,31.98
2023-02-07T08:38:12.673Z,28.85
2023-02-07T08:40:42.104Z,29.27
2023-02-07T08:43:13.516Z,29.33
2023-02-07T08:45:49.992Z,30.50
2023-02-07T08:48:21.549Z,29.65
2023-02-07T08:50:50.224Z,29.40
2023-02-07T08:53:19.537Z,30.77
2023-02-07T08:55:49.388Z,29.40
2023-02-07T08:58:20.058Z,30.23
2023-02-07T09:00:48.783Z,31.00
2023-02-07T09:03:17.537Z,32.63
2023-02-07T09:05:46.295Z,30.98
2023-02-07T09:08:15.220Z,29.95
2023-02-07T09:10:46.033Z,28.52
2023-02-07T09:13:16.268Z,29.98
2023-02-07T09:15:45.061Z,29.10
2023-02-07T09:18:13.917Z,29.65
2023-02-07T09:20:42.594Z,27.98
2023-02-07T09:23:26.552Z,26.92
2023-02-07T09:25:55.788Z,28.85
2023-02-07T09:28:24.636Z,28.50
2023-02-07T09:30:53.926Z,28.08
2023-02-07T09:33:25.395Z,29.20
2023-02-07T09:35:55.663Z,28.25
2023-02-07T09:38:27.330Z,27.63
2023-02-07T09:40:57.395Z,27.13
2023-02-07T09:43:46.371Z,27.17
2023-02-07T09:46:26.578Z,26.45
2023-02-07T09:49:14.598Z,27.23
2023-02-07T09:51:45.513Z,27.15
2023-02-07T09:54:24.932Z,28.55
2023-02-07T09:56:59.400Z,28.92
2023-02-07T09:59:35.288Z,28.52
2023-02-07T10:02:19.850Z,28.00
2023-02-07T10:04:52.335Z,27.58
2023-02-07T10:07:21.301Z,28.92
2023-02-07T10:09:50.510Z,28.00
2023-02-07T10:12:30.795Z,27.67
2023-02-07T10:15:20.917Z,28.50
2023-02-07T10:18:08.314Z,28.77
2023-02-07T10:20:49.460Z,30.30
2023-02-07T10:23:39.874Z,31.55
2023-02-07T10:26:17.107Z,30.80
2023-02-07T10:29:24.966Z,29.77
2023-02-07T10:31:56.222Z,28.73
2023-02-07T10:34:29.079Z,29.33
2023-02-07T10:37:00.488Z,30.65
2023-02-07T10:39:39.964Z,30.45
2023-02-07T10:42:16.758Z,30.00
2023-02-07T10:44:45.581Z,29.38
2023-02-07T10:47:19.042Z,31.30
2023-02-07T10:49:52.102Z,32.63
2023-02-07T10:52:44.707Z,31.55
2023-02-07T10:55:18.678Z,30.00
2023-02-07T10:58:08.606Z,29.88
2023-02-07T11:00:48.812Z,31.48
2023-02-07T11:03:22.576Z,31.13
2023-02-07T11:05:57.981Z,31.67
2023-02-07T11:08:30.954Z,30.90
2023-02-07T11:11:02.172Z,33.10
2023-02-07T11:13:33.638Z,32.80
2023-02-07T11:16:08.189Z,31.83
2023-02-07T11:18:45.004Z,32.55
2023-02-07T11:21:35.515Z,33.42
2023-02-07T11:24:10.172Z,32.65
2023-02-07T11:26:54.525Z,33.20
2023-02-07T11:29:26.939Z,35.10
2023-02-07T11:32:00.743Z,36.85
2023-02-07T11:34:30.358Z,37.53
2023-02-07T11:37:20.122Z,40.60
2023-02-07T11:39:51.298Z,39.80
2023-02-07T11:42:23.296Z,42.65
2023-02-07T11:44:54.180Z,45.05
2023-02-07T11:47:33.653Z,44.78
2023-02-07T11:50:06.011Z,45.15
2023-02-07T11:52:41.022Z,44.95
2023-02-07T11:55:19.708Z,45.75
2023-02-07T11:57:48.567Z,57.47
2023-02-07T12:00:20.318Z,63.40
2023-02-07T12:03:03.073Z,65.15
2023-02-07T12:05:38.566Z,67.75
2023-02-07T12:08:16.285Z,67.07
2023-02-07T12:10:50.901Z,65.47
2023-02-07T12:13:30.439Z,65.50
2023-02-07T12:16:07.148Z,60.25
2023-02-07T12:18:42.922Z,60.67
2023-02-07T12:21:51.317Z,61.00
2023-02-07T12:24:34.675Z,60.72
2023-02-07T12:27:25.964Z,53.63
2023-02-07T12:30:30.654Z,52.10
2023-02-07T12:33:12.074Z,52.33
2023-02-07T12:36:12.605Z,55.17
2023-02-07T12:38:42.278Z,54.33
2023-02-07T12:41:18.284Z,55.83
2023-02-07T12:44:04.290Z,58.13
2023-02-07T12:46:48.044Z,53.55
2023-02-07T12:49:40.742Z,51.90
2023-02-07T12:52:14.139Z,51.03
2023-02-07T12:55:11.666Z,49.65
2023-02-07T12:57:47.381Z,49.25
2023-02-07T13:00:49.885Z,48.35
2023-02-07T13:03:25.087Z,49.27
2023-02-07T13:05:54.826Z,47.85
2023-02-07T13:08:27.924Z,46.10
2023-02-07T13:11:23.020Z,45.20
2023-02-07T13:13:58.464Z,45.50
2023-02-07T13:17:00.588Z,44.65
2023-02-07T13:19:54.313Z,44.58
2023-02-07T13:22:27.922Z,42.88
2023-02-07T13:24:58.162Z,42.00
2023-02-07T13:27:30.042Z,41.63
2023-02-07T13:30:01.868Z,41.43
2023-02-07T13:32:30.608Z,42.75
2023-02-07T13:35:01.287Z,40.10
2023-02-07T13:37:36.571Z,40.13
2023-02-07T13:40:29.495Z,41.15
2023-02-07T13:43:10.382Z,40.17
2023-02-07T13:45:58.067Z,41.20
2023-02-07T13:48:36.107Z,39.72
2023-02-07T13:51:32.990Z,39.63
2023-02-07T13:54:25.329Z,41.78
2023-02-07T13:57:22.539Z,38.60
2023-02-07T14:00:29.809Z,38.13
2023-02-07T14:03:02.364Z,38.47
2023-02-07T14:05:39.232Z,37.97
2023-02-07T14:08:25.978Z,38.83
2023-02-07T14:10:56.949Z,37.80
2023-02-07T14:13:26.658Z,37.70
2023-02-07T14:15:58.453Z,38.42
2023-02-07T14:18:46.621Z,39.20
2023-02-07T14:21:26.260Z,38.42
2023-02-07T14:24:15.470Z,36.83
2023-02-07T14:26:58.216Z,37.83
2023-02-07T14:29:29.569Z,38.85
2023-02-07T14:32:19.206Z,38.95
2023-02-07T14:35:23.509Z,37.38
2023-02-07T14:38:02.458Z,38.20
2023-02-07T14:40:47.756Z,37.55
2023-02-07T14:43:19.269Z,37.08
2023-02-07T14:46:11.658Z,35.95
2023-02-07T14:48:49.814Z,36.28
2023-02-07T14:51:32.528Z,34.65
2023-02-07T14:54:27.519Z,36.00
2023-02-07T14:57:16.702Z,36.22
2023-02-07T15:00:03.985Z,36.28
2023-02-07T15:02:42.210Z,36.70
2023-02-07T15:05:32.267Z,36.65
2023-02-07T15:08:05.306Z,34.72
2023-02-07T15:10:38.095Z,36.65
2023-02-07T15:13:18.125Z,35.92
2023-02-07T15:15:53.525Z,35.20
2023-02-07T15:18:25.841Z,36.42
2023-02-07T15:20:58.721Z,37.15
2023-02-07T15:23:32.334Z,36.15
2023-02-07T15:26:08.698Z,38.53
2023-02-07T15:28:38.258Z,37.75
2023-02-07T15:31:18.649Z,37.67
2023-02-07T15:33:49.986Z,40.40
2023-02-07T15:36:40.908Z,39.47
2023-02-07T15:39:24.594Z,38.05
2023-02-07T15:41:55.692Z,37.30
2023-02-07T15:44:28.957Z,39.20
2023-02-07T15:47:01.781Z,38.08
2023-02-07T15:49:37.135Z,36.60
2023-02-07T15:52:16.016Z,35.97
2023-02-07T15:54:49.543Z,37.30
2023-02-07T15:57:28.686Z,38.60
2023-02-07T16:00:02.575Z,37.35
2023-02-07T16:02:34.493Z,35.92
2023-02-07T16:05:17.722Z,37.40
2023-02-07T16:07:49.664Z,34.92
2023-02-07T16:10:27.351Z,36.87
2023-02-07T16:13:04.298Z,35.42
2023-02-07T16:15:36.154Z,34.92
2023-02-07T16:18:06.954Z,37.53
2023-02-07T16:20:38.417Z,38.83
2023-02-07T16:23:10.810Z,38.03
2023-02-07T16:25:39.672Z,36.47
2023-02-07T16:28:12.521Z,35.88
2023-02-07T16:30:42.501Z,36.45
2023-02-07T16:33:15.368Z,35.75
2023-02-07T16:38:12.390Z,36.95
2023-02-07T16:40:41.521Z,36.65
2023-02-07T16:43:26.349Z,37.95
2023-02-07T16:45:55.528Z,36.30
2023-02-07T16:48:24.206Z,37.60
2023-02-07T16:50:52.865Z,35.45
2023-02-07T16:53:21.547Z,37.70
2023-02-07T16:55:50.247Z,36.00
2023-02-07T16:58:35.210Z,36.28
2023-02-07T17:01:20.525Z,36.05
2023-02-07T17:03:49.942Z,33.63
2023-02-07T17:06:21.625Z,32.53
2023-02-07T17:08:51.097Z,32.28
2023-02-07T17:11:26.239Z,32.42
2023-02-07T17:13:57.104Z,32.03
2023-02-07T17:16:28.670Z,31.40
2023-02-07T17:18:57.520Z,30.48
2023-02-07T17:21:26.262Z,30.08
2023-02-07T17:23:55.035Z,29.83
2023-02-07T17:26:27.491Z,28.27
2023-02-07T17:28:57.124Z,26.42
2023-02-07T17:31:26.346Z,28.13
2023-02-07T17:33:55.266Z,25.50
2023-02-07T17:36:24.447Z,25.83
2023-02-07T17:38:54.208Z,26.30
2023-02-07T17:41:23.769Z,26.65
2023-02-07T17:43:52.462Z,25.60
2023-02-07T17:46:25.025Z,26.15
2023-02-07T17:48:54.761Z,25.63
2023-02-07T17:51:25.701Z,26.45
2023-02-07T17:53:55.163Z,25.27
2023-02-07T17:56:27.915Z,25.95
2023-02-07T18:01:25.995Z,25.13
2023-02-07T18:03:56.481Z,24.55
2023-02-07T18:06:27.660Z,24.02
2023-02-07T18:08:59.479Z,23.17
2023-02-07T18:11:29.700Z,21.48
2023-02-07T18:13:59.206Z,21.02
2023-02-07T18:16:28.478Z,21.58
2023-02-07T18:18:58.950Z,20.80
2023-02-07T18:21:28.791Z,19.83
2023-02-07T18:23:58.086Z,18.63
2023-02-07T18:26:26.773Z,18.65
2023-02-07T18:28:55.571Z,17.80
2023-02-07T18:31:26.100Z,18.55
2023-02-07T18:33:55.821Z,18.52
2023-02-07T18:36:27.671Z,18.40
2023-02-07T18:38:59.279Z,19.07
2023-02-07T18:41:27.968Z,18.10
2023-02-07T18:43:56.649Z,19.13
2023-02-07T18:46:25.416Z,18.02
2023-02-07T18:48:58.188Z,18.70
2023-02-07T18:51:27.494Z,18.60
2023-02-07T18:53:56.301Z,19.13
2023-02-07T18:56:28.264Z,18.00
2023-02-07T18:58:58.018Z,18.60
2023-02-07T19:01:28.868Z,19.33
2023-02-07T19:03:59.590Z,17.75
2023-02-07T19:06:32.082Z,19.98
2023-02-07T19:09:01.328Z,20.05
2023-02-07T19:11:30.080Z,19.80
2023-02-07T19:13:59.651Z,19.77
2023-02-07T19:16:28.780Z,18.70
2023-02-07T19:19:00.047Z,20.23
2023-02-07T19:21:28.778Z,20.50
2023-02-07T19:23:58.954Z,20.55
2023-02-07T19:26:28.016Z,19.92
2023-02-07T19:28:58.577Z,20.27
2023-02-07T19:31:30.341Z,20.52
2023-02-07T19:33:59.962Z,20.05
2023-02-07T19:36:31.225Z,20.15
2023-02-07T19:39:00.170Z,20.10
2023-02-07T19:41:30.532Z,20.33
2023-02-07T19:43:59.439Z,21.48
2023-02-07T19:46:28.691Z,19.83
2023-02-07T19:48:58.074Z,21.58
2023-02-07T19:51:30.185Z,20.70
2023-02-07T19:54:00.659Z,19.13
2023-02-07T19:56:34.234Z,20.35
2023-02-07T19:59:05.361Z,19.13
2023-02-07T20:01:35.493Z,17.70
2023-02-07T20:04:04.328Z,18.88
2023-02-07T20:06:35.555Z,18.17
2023-02-07T20:09:06.914Z,17.98
2023-02-07T20:11:36.404Z,18.05
2023-02-07T20:14:05.285Z,18.55
2023-02-07T20:16:36.902Z,17.60
2023-02-07T20:19:07.975Z,18.80
2023-02-07T20:21:38.034Z,18.90
2023-02-07T20:24:07.063Z,17.67
2023-02-07T20:26:40.365Z,17.58
2023-02-07T20:29:12.789Z,17.52
2023-02-07T20:31:41.863Z,15.82
2023-02-07T20:34:13.316Z,16.40
2023-02-07T20:36:43.395Z,15.75
2023-02-07T20:39:16.280Z,15.32
2023-02-07T20:41:47.150Z,16.33
2023-02-07T20:44:20.726Z,15.38
2023-02-07T20:46:50.531Z,15.10
2023-02-07T20:49:26.212Z,14.38
2023-02-07T20:51:57.306Z,14.75
2023-02-07T20:54:28.247Z,14.27
2023-02-07T20:56:58.059Z,14.88
2023-02-07T20:59:29.267Z,14.48
2023-02-07T21:01:58.582Z,14.60
2023-02-07T21:04:29.542Z,14.27
2023-02-07T21:06:58.302Z,14.65
2023-02-07T21:09:27.092Z,14.52
2023-02-07T21:11:55.979Z,15.40
2023-02-07T21:14:28.756Z,14.13
2023-02-07T21:19:27.570Z,15.50
2023-02-07T21:21:56.495Z,14.77
2023-02-07T21:24:25.437Z,14.73
2023-02-07T21:26:55.972Z,15.60
2023-02-07T21:29:25.065Z,15.15
2023-02-07T21:31:54.355Z,15.30
2023-02-07T21:34:23.264Z,15.45
2023-02-07T21:36:52.048Z,15.85
2023-02-07T21:39:21.317Z,16.20
2023-02-07T21:41:50.026Z,15.10
2023-02-07T21:44:22.047Z,15.75
2023-02-07T21:46:52.626Z,16.45
2023-02-07T21:49:21.619Z,16.02
2023-02-07T21:51:55.242Z,15.70
2023-02-07T21:54:24.074Z,16.30
2023-02-07T21:56:53.569Z,16.40
2023-02-07T21:59:25.109Z,16.52
2023-02-07T22:01:55.163Z,17.00
2023-02-07T22:04:25.480Z,17.02
2023-02-07T22:06:54.278Z,16.13
2023-02-07T22:09:25.062Z,16.67
2023-02-07T22:11:55.477Z,15.80
2023-02-07T22:14:26.753Z,14.52
2023-02-07T22:16:56.973Z,15.57
2023-02-07T22:19:26.372Z,16.55
2023-02-07T22:21:55.074Z,17.15
2023-02-07T22:24:23.764Z,17.02
2023-02-07T22:26:52.456Z,16.48
2023-02-07T22:29:21.132Z,16.30
2023-02-07T22:31:50.001Z,16.73
2023-02-07T22:34:18.859Z,16.65
2023-02-07T22:36:48.041Z,16.42
2023-02-07T22:39:18.570Z,15.68
2023-02-07T22:41:48.206Z,16.75
2023-02-07T22:44:16.981Z,15.63
2023-02-07T22:46:45.744Z,16.27
2023-02-07T22:49:14.410Z,18.02
2023-02-07T22:51:43.954Z,18.02
2023-02-07T22:54:17.662Z,19.42
2023-02-07T22:56:46.580Z,18.85
2023-02-07T22:59:15.520Z,20.73
2023-02-07T23:01:46.559Z,21.77
2023-02-07T23:04:18.283Z,20.88
2023-02-07T23:06:48.495Z,21.02
2023-02-07T23:09:17.286Z,22.75
2023-02-07T23:11:46.050Z,21.58
2023-02-07T23:14:15.270Z,21.92
2023-02-07T23:16:44.473Z,24.05
2023-02-07T23:19:16.973Z,23.80
2023-02-07T23:21:46.003Z,23.40
2023-02-07T23:24:14.714Z,23.17
2023-02-07T23:26:43.421Z,26.05
2023-02-07T23:29:12.089Z,25.13
2023-02-07T23:31:40.914Z,26.30
2023-02-07T23:34:11.721Z,24.52
2023-02-07T23:36:41.060Z,26.30
2023-02-07T23:39:10.153Z,28.63
2023-02-07T23:41:39.797Z,27.90
2023-02-07T23:44:09.471Z,26.92
2023-02-07T23:46:38.385Z,27.33
2023-02-07T23:49:07.752Z,29.48
2023-02-07T23:51:36.436Z,29.20
2023-02-07T23:54:05.608Z,29.08
2023-02-07T23:56:34.932Z,29.88
2023-02-07T23:59:03.605Z,29.48
